sensor_id;sensor_type;location;lat;lon;timestamp;P1;durP1;ratioP1;P2;durP2;ratioP2
72761;SDS011;60886;55.034;73.150;2023-05-02T00:00:17;18.73;;;8.07;;
72761;SDS011;60886;55.034;73.150;2023-05-02T00:03:18;22.93;;;8.53;;
72761;SDS011;60886;55.034;73.150;2023-05-02T00:06:40;21.11;;;8.76;;
72761;SDS011;60886;55.034;73.150;2023-05-02T00:09:55;23.73;;;10.00;;
72761;SDS011;60886;55.034;73.150;2023-05-02T00:13:08;23.88;;;9.90;;
72761;SDS011;60886;55.034;73.150;2023-05-02T00:16:19;25.55;;;9.55;;
72761;SDS011;60886;55.034;73.150;2023-05-02T00:19:26;24.20;;;8.25;;
72761;SDS011;60886;55.034;73.150;2023-05-02T00:22:28;20.57;;;7.57;;
72761;SDS011;60886;55.034;73.150;2023-05-02T00:25:43;20.92;;;7.22;;
72761;SDS011;60886;55.034;73.150;2023-05-02T00:28:45;17.97;;;6.80;;
72761;SDS011;60886;55.034;73.150;2023-05-02T00:31:57;19.55;;;7.47;;
72761;SDS011;60886;55.034;73.150;2023-05-02T00:34:59;23.48;;;8.13;;
72761;SDS011;60886;55.034;73.150;2023-05-02T00:38:01;22.42;;;7.55;;
72761;SDS011;60886;55.034;73.150;2023-05-02T00:41:02;21.23;;;7.87;;
72761;SDS011;60886;55.034;73.150;2023-05-02T00:44:06;22.67;;;7.63;;
72761;SDS011;60886;55.034;73.150;2023-05-02T00:47:08;20.95;;;7.47;;
72761;SDS011;60886;55.034;73.150;2023-05-02T00:50:10;20.25;;;7.80;;
72761;SDS011;60886;55.034;73.150;2023-05-02T00:53:14;20.10;;;7.85;;
72761;SDS011;60886;55.034;73.150;2023-05-02T00:56:16;18.88;;;7.90;;
72761;SDS011;60886;55.034;73.150;2023-05-02T00:59:19;20.25;;;8.45;;
72761;SDS011;60886;55.034;73.150;2023-05-02T01:03:34;20.05;;;8.07;;
72761;SDS011;60886;55.034;73.150;2023-05-02T01:06:52;21.15;;;8.45;;
72761;SDS011;60886;55.034;73.150;2023-05-02T01:13:54;20.58;;;8.57;;
72761;SDS011;60886;55.034;73.150;2023-05-02T01:17:09;18.97;;;8.20;;
72761;SDS011;60886;55.034;73.150;2023-05-02T01:20:13;19.58;;;8.48;;
72761;SDS011;60886;55.034;73.150;2023-05-02T01:26:58;23.23;;;9.00;;
72761;SDS011;60886;55.034;73.150;2023-05-02T01:30:08;21.95;;;9.02;;
72761;SDS011;60886;55.034;73.150;2023-05-02T01:33:12;21.13;;;8.93;;
72761;SDS011;60886;55.034;73.150;2023-05-02T01:36:17;19.85;;;9.07;;
72761;SDS011;60886;55.034;73.150;2023-05-02T01:39:21;19.03;;;9.47;;
72761;SDS011;60886;55.034;73.150;2023-05-02T01:42:24;25.65;;;10.90;;
72761;SDS011;60886;55.034;73.150;2023-05-02T01:45:31;22.88;;;10.82;;
72761;SDS011;60886;55.034;73.150;2023-05-02T01:48:36;23.83;;;10.75;;
72761;SDS011;60886;55.034;73.150;2023-05-02T01:51:43;22.95;;;11.00;;
72761;SDS011;60886;55.034;73.150;2023-05-02T01:54:49;24.77;;;10.57;;
72761;SDS011;60886;55.034;73.150;2023-05-02T01:57:52;27.70;;;11.88;;
72761;SDS011;60886;55.034;73.150;2023-05-02T02:00:56;28.33;;;11.45;;
72761;SDS011;60886;55.034;73.150;2023-05-02T02:04:14;26.07;;;11.37;;
72761;SDS011;60886;55.034;73.150;2023-05-02T02:07:16;28.40;;;13.00;;
72761;SDS011;60886;55.034;73.150;2023-05-02T02:10:18;23.70;;;11.90;;
72761;SDS011;60886;55.034;73.150;2023-05-02T02:13:39;26.73;;;12.10;;
72761;SDS011;60886;55.034;73.150;2023-05-02T02:16:45;28.56;;;11.40;;
72761;SDS011;60886;55.034;73.150;2023-05-02T02:19:52;33.53;;;13.43;;
72761;SDS011;60886;55.034;73.150;2023-05-02T02:22:59;27.67;;;13.85;;
72761;SDS011;60886;55.034;73.150;2023-05-02T02:26:17;27.77;;;13.00;;
72761;SDS011;60886;55.034;73.150;2023-05-02T02:29:24;32.37;;;14.63;;
72761;SDS011;60886;55.034;73.150;2023-05-02T02:32:56;29.00;;;14.93;;
72761;SDS011;60886;55.034;73.150;2023-05-02T02:36:10;29.05;;;15.65;;
72761;SDS011;60886;55.034;73.150;2023-05-02T02:53:25;32.50;;;17.07;;
72761;SDS011;60886;55.034;73.150;2023-05-02T02:56:41;33.15;;;17.25;;
72761;SDS011;60886;55.034;73.150;2023-05-02T03:00:00;33.83;;;17.65;;
72761;SDS011;60886;55.034;73.150;2023-05-02T03:03:13;33.83;;;18.53;;
72761;SDS011;60886;55.034;73.150;2023-05-02T03:06:26;34.80;;;19.38;;
72761;SDS011;60886;55.034;73.150;2023-05-02T03:09:39;38.22;;;20.20;;
72761;SDS011;60886;55.034;73.150;2023-05-02T03:12:49;40.25;;;20.55;;
72761;SDS011;60886;55.034;73.150;2023-05-02T03:18:58;38.30;;;21.85;;
72761;SDS011;60886;55.034;73.150;2023-05-02T03:22:03;41.13;;;24.02;;
72761;SDS011;60886;55.034;73.150;2023-05-02T03:25:28;37.13;;;22.13;;
72761;SDS011;60886;55.034;73.150;2023-05-02T03:28:30;42.50;;;24.27;;
72761;SDS011;60886;55.034;73.150;2023-05-02T03:31:42;39.46;;;22.92;;
72761;SDS011;60886;55.034;73.150;2023-05-02T03:34:44;46.95;;;25.17;;
72761;SDS011;60886;55.034;73.150;2023-05-02T03:37:48;40.58;;;23.38;;
72761;SDS011;60886;55.034;73.150;2023-05-02T03:40:51;31.88;;;18.95;;
72761;SDS011;60886;55.034;73.150;2023-05-02T03:44:02;31.60;;;18.48;;
72761;SDS011;60886;55.034;73.150;2023-05-02T03:47:08;28.07;;;15.83;;
72761;SDS011;60886;55.034;73.150;2023-05-02T03:50:14;25.23;;;14.07;;
72761;SDS011;60886;55.034;73.150;2023-05-02T03:53:17;26.67;;;13.18;;
72761;SDS011;60886;55.034;73.150;2023-05-02T03:56:25;22.10;;;12.83;;
72761;SDS011;60886;55.034;73.150;2023-05-02T03:59:48;22.45;;;11.90;;
72761;SDS011;60886;55.034;73.150;2023-05-02T04:03:00;21.30;;;10.35;;
72761;SDS011;60886;55.034;73.150;2023-05-02T04:06:07;16.23;;;8.02;;
72761;SDS011;60886;55.034;73.150;2023-05-02T04:09:09;17.57;;;8.30;;
72761;SDS011;60886;55.034;73.150;2023-05-02T04:12:17;19.25;;;9.43;;
72761;SDS011;60886;55.034;73.150;2023-05-02T04:15:22;21.73;;;9.80;;
72761;SDS011;60886;55.034;73.150;2023-05-02T04:18:33;15.43;;;7.60;;
72761;SDS011;60886;55.034;73.150;2023-05-02T04:21:42;17.32;;;7.70;;
72761;SDS011;60886;55.034;73.150;2023-05-02T04:24:44;14.57;;;7.97;;
72761;SDS011;60886;55.034;73.150;2023-05-02T04:27:49;18.23;;;9.17;;
72761;SDS011;60886;55.034;73.150;2023-05-02T04:30:56;19.27;;;8.45;;
72761;SDS011;60886;55.034;73.150;2023-05-02T04:33:59;16.13;;;8.17;;
72761;SDS011;60886;55.034;73.150;2023-05-02T04:37:14;16.23;;;8.38;;
72761;SDS011;60886;55.034;73.150;2023-05-02T04:40:18;14.77;;;6.68;;
72761;SDS011;60886;55.034;73.150;2023-05-02T04:43:23;12.47;;;5.87;;
72761;SDS011;60886;55.034;73.150;2023-05-02T04:46:40;15.66;;;6.34;;
72761;SDS011;60886;55.034;73.150;2023-05-02T04:49:42;15.95;;;6.43;;
72761;SDS011;60886;55.034;73.150;2023-05-02T04:52:43;14.70;;;6.10;;
72761;SDS011;60886;55.034;73.150;2023-05-02T04:55:49;16.63;;;7.55;;
72761;SDS011;60886;55.034;73.150;2023-05-02T04:58:50;16.38;;;7.07;;
72761;SDS011;60886;55.034;73.150;2023-05-02T05:01:57;13.77;;;6.80;;
72761;SDS011;60886;55.034;73.150;2023-05-02T05:05:09;16.60;;;7.78;;
72761;SDS011;60886;55.034;73.150;2023-05-02T05:08:10;19.37;;;8.47;;
72761;SDS011;60886;55.034;73.150;2023-05-02T05:11:12;15.85;;;8.07;;
72761;SDS011;60886;55.034;73.150;2023-05-02T05:14:15;17.27;;;8.93;;
72761;SDS011;60886;55.034;73.150;2023-05-02T05:17:21;19.23;;;9.77;;
72761;SDS011;60886;55.034;73.150;2023-05-02T05:20:23;19.38;;;9.80;;
72761;SDS011;60886;55.034;73.150;2023-05-02T05:23:27;21.57;;;10.97;;
72761;SDS011;60886;55.034;73.150;2023-05-02T05:26:29;20.77;;;10.80;;
72761;SDS011;60886;55.034;73.150;2023-05-02T05:29:41;23.80;;;11.80;;
72761;SDS011;60886;55.034;73.150;2023-05-02T05:32:43;24.65;;;12.45;;
72761;SDS011;60886;55.034;73.150;2023-05-02T05:35:44;21.95;;;11.93;;
72761;SDS011;60886;55.034;73.150;2023-05-02T05:38:46;23.70;;;12.17;;
72761;SDS011;60886;55.034;73.150;2023-05-02T05:41:48;21.33;;;12.17;;
72761;SDS011;60886;55.034;73.150;2023-05-02T05:44:50;22.93;;;12.30;;
72761;SDS011;60886;55.034;73.150;2023-05-02T05:47:53;22.13;;;11.77;;
72761;SDS011;60886;55.034;73.150;2023-05-02T05:50:56;19.83;;;10.50;;
72761;SDS011;60886;55.034;73.150;2023-05-02T05:53:58;19.97;;;10.27;;
72761;SDS011;60886;55.034;73.150;2023-05-02T05:57:00;20.40;;;11.10;;
72761;SDS011;60886;55.034;73.150;2023-05-02T06:00:04;21.75;;;11.45;;
72761;SDS011;60886;55.034;73.150;2023-05-02T06:03:16;21.48;;;10.93;;
72761;SDS011;60886;55.034;73.150;2023-05-02T06:06:19;23.00;;;11.00;;
72761;SDS011;60886;55.034;73.150;2023-05-02T06:09:25;20.38;;;9.35;;
72761;SDS011;60886;55.034;73.150;2023-05-02T06:12:27;17.47;;;9.77;;
72761;SDS011;60886;55.034;73.150;2023-05-02T06:15:28;19.20;;;9.88;;
72761;SDS011;60886;55.034;73.150;2023-05-02T06:18:32;18.47;;;9.27;;
72761;SDS011;60886;55.034;73.150;2023-05-02T06:21:40;19.42;;;8.92;;
72761;SDS011;60886;55.034;73.150;2023-05-02T06:24:41;19.63;;;9.18;;
72761;SDS011;60886;55.034;73.150;2023-05-02T06:27:43;14.85;;;7.20;;
72761;SDS011;60886;55.034;73.150;2023-05-02T06:30:44;15.68;;;7.05;;
72761;SDS011;60886;55.034;73.150;2023-05-02T06:33:46;14.40;;;7.03;;
72761;SDS011;60886;55.034;73.150;2023-05-02T06:36:47;19.65;;;6.72;;
72761;SDS011;60886;55.034;73.150;2023-05-02T06:39:49;12.13;;;5.77;;
72761;SDS011;60886;55.034;73.150;2023-05-02T06:42:50;14.60;;;5.97;;
72761;SDS011;60886;55.034;73.150;2023-05-02T06:45:52;12.75;;;5.28;;
72761;SDS011;60886;55.034;73.150;2023-05-02T06:48:55;14.65;;;6.00;;
72761;SDS011;60886;55.034;73.150;2023-05-02T06:51:56;14.13;;;5.77;;
72761;SDS011;60886;55.034;73.150;2023-05-02T06:54:57;12.82;;;5.28;;
72761;SDS011;60886;55.034;73.150;2023-05-02T06:57:59;11.73;;;5.23;;
72761;SDS011;60886;55.034;73.150;2023-05-02T07:01:10;12.32;;;5.00;;
72761;SDS011;60886;55.034;73.150;2023-05-02T07:04:12;14.03;;;5.47;;
72761;SDS011;60886;55.034;73.150;2023-05-02T07:07:14;11.17;;;4.87;;
72761;SDS011;60886;55.034;73.150;2023-05-02T07:10:19;13.07;;;5.45;;
72761;SDS011;60886;55.034;73.150;2023-05-02T07:13:21;13.47;;;6.00;;
72761;SDS011;60886;55.034;73.150;2023-05-02T07:16:22;14.23;;;6.33;;
72761;SDS011;60886;55.034;73.150;2023-05-02T07:19:24;14.80;;;6.10;;
72761;SDS011;60886;55.034;73.150;2023-05-02T07:22:25;15.27;;;7.00;;
72761;SDS011;60886;55.034;73.150;2023-05-02T07:25:27;17.20;;;7.20;;
72761;SDS011;60886;55.034;73.150;2023-05-02T07:28:32;17.73;;;7.80;;
72761;SDS011;60886;55.034;73.150;2023-05-02T07:31:40;16.48;;;7.45;;
72761;SDS011;60886;55.034;73.150;2023-05-02T07:34:41;16.25;;;7.32;;
72761;SDS011;60886;55.034;73.150;2023-05-02T07:37:43;15.52;;;6.78;;
72761;SDS011;60886;55.034;73.150;2023-05-02T07:40:50;14.13;;;6.93;;
72761;SDS011;60886;55.034;73.150;2023-05-02T07:44:05;15.40;;;7.00;;
72761;SDS011;60886;55.034;73.150;2023-05-02T07:47:07;17.60;;;7.47;;
72761;SDS011;60886;55.034;73.150;2023-05-02T07:50:09;17.67;;;6.90;;
72761;SDS011;60886;55.034;73.150;2023-05-02T07:53:11;19.27;;;8.20;;
72761;SDS011;60886;55.034;73.150;2023-05-02T07:56:12;17.52;;;7.25;;
72761;SDS011;60886;55.034;73.150;2023-05-02T07:59:14;16.25;;;7.57;;
72761;SDS011;60886;55.034;73.150;2023-05-02T08:02:15;24.23;;;7.70;;
72761;SDS011;60886;55.034;73.150;2023-05-02T08:05:19;17.40;;;7.78;;
72761;SDS011;60886;55.034;73.150;2023-05-02T08:08:21;15.10;;;6.93;;
72761;SDS011;60886;55.034;73.150;2023-05-02T08:11:23;14.82;;;6.78;;
72761;SDS011;60886;55.034;73.150;2023-05-02T08:14:27;13.63;;;6.00;;
72761;SDS011;60886;55.034;73.150;2023-05-02T08:17:34;14.18;;;5.93;;
72761;SDS011;60886;55.034;73.150;2023-05-02T08:20:35;12.68;;;5.60;;
72761;SDS011;60886;55.034;73.150;2023-05-02T08:23:37;12.73;;;4.90;;
72761;SDS011;60886;55.034;73.150;2023-05-02T08:26:40;12.18;;;5.50;;
72761;SDS011;60886;55.034;73.150;2023-05-02T08:29:42;12.40;;;5.10;;
72761;SDS011;60886;55.034;73.150;2023-05-02T08:32:44;11.77;;;5.53;;
72761;SDS011;60886;55.034;73.150;2023-05-02T08:35:47;15.57;;;6.22;;
72761;SDS011;60886;55.034;73.150;2023-05-02T08:38:48;13.83;;;6.20;;
72761;SDS011;60886;55.034;73.150;2023-05-02T08:41:50;12.75;;;6.35;;
72761;SDS011;60886;55.034;73.150;2023-05-02T08:44:51;14.50;;;6.67;;
72761;SDS011;60886;55.034;73.150;2023-05-02T08:47:53;13.90;;;6.07;;
72761;SDS011;60886;55.034;73.150;2023-05-02T08:50:56;14.23;;;6.82;;
72761;SDS011;60886;55.034;73.150;2023-05-02T08:53:59;13.77;;;5.57;;
72761;SDS011;60886;55.034;73.150;2023-05-02T08:57:03;13.87;;;5.40;;
72761;SDS011;60886;55.034;73.150;2023-05-02T09:00:06;15.80;;;5.70;;
72761;SDS011;60886;55.034;73.150;2023-05-02T09:03:11;9.93;;;4.80;;
72761;SDS011;60886;55.034;73.150;2023-05-02T09:06:16;14.82;;;6.50;;
72761;SDS011;60886;55.034;73.150;2023-05-02T09:09:19;16.47;;;6.70;;
72761;SDS011;60886;55.034;73.150;2023-05-02T09:12:24;19.10;;;8.48;;
72761;SDS011;60886;55.034;73.150;2023-05-02T09:15:26;14.48;;;7.72;;
72761;SDS011;60886;55.034;73.150;2023-05-02T09:18:32;15.43;;;7.60;;
72761;SDS011;60886;55.034;73.150;2023-05-02T09:21:40;13.60;;;7.18;;
72761;SDS011;60886;55.034;73.150;2023-05-02T09:24:41;14.73;;;7.63;;
72761;SDS011;60886;55.034;73.150;2023-05-02T09:31:08;13.48;;;7.55;;
72761;SDS011;60886;55.034;73.150;2023-05-02T09:34:14;14.27;;;7.87;;
72761;SDS011;60886;55.034;73.150;2023-05-02T09:37:35;17.73;;;8.63;;
72761;SDS011;60886;55.034;73.150;2023-05-02T09:40:36;15.17;;;7.10;;
72761;SDS011;60886;55.034;73.150;2023-05-02T09:43:43;24.03;;;9.70;;
72761;SDS011;60886;55.034;73.150;2023-05-02T09:46:55;16.48;;;8.88;;
72761;SDS011;60886;55.034;73.150;2023-05-02T09:50:10;16.73;;;8.50;;
72761;SDS011;60886;55.034;73.150;2023-05-02T09:53:11;19.80;;;10.80;;
72761;SDS011;60886;55.034;73.150;2023-05-02T09:56:12;19.83;;;9.82;;
72761;SDS011;60886;55.034;73.150;2023-05-02T09:59:15;20.60;;;9.50;;
72761;SDS011;60886;55.034;73.150;2023-05-02T10:02:27;16.98;;;8.88;;
72761;SDS011;60886;55.034;73.150;2023-05-02T10:05:31;17.30;;;10.27;;
72761;SDS011;60886;55.034;73.150;2023-05-02T10:08:47;17.23;;;10.05;;
72761;SDS011;60886;55.034;73.150;2023-05-02T10:11:52;16.73;;;8.67;;
72761;SDS011;60886;55.034;73.150;2023-05-02T10:15:02;14.70;;;8.05;;
72761;SDS011;60886;55.034;73.150;2023-05-02T10:18:32;17.50;;;8.80;;
72761;SDS011;60886;55.034;73.150;2023-05-02T10:21:40;20.90;;;9.87;;
72761;SDS011;60886;55.034;73.150;2023-05-02T10:24:43;17.98;;;8.82;;
72761;SDS011;60886;55.034;73.150;2023-05-02T10:27:58;16.07;;;8.67;;
72761;SDS011;60886;55.034;73.150;2023-05-02T10:30:59;15.37;;;7.07;;
72761;SDS011;60886;55.034;73.150;2023-05-02T10:34:05;12.60;;;5.30;;
72761;SDS011;60886;55.034;73.150;2023-05-02T10:37:10;11.37;;;4.80;;
72761;SDS011;60886;55.034;73.150;2023-05-02T10:40:12;13.30;;;5.65;;
72761;SDS011;60886;55.034;73.150;2023-05-02T10:43:24;11.77;;;6.53;;
72761;SDS011;60886;55.034;73.150;2023-05-02T10:46:32;20.42;;;6.75;;
72761;SDS011;60886;55.034;73.150;2023-05-02T10:49:50;12.77;;;5.07;;
72761;SDS011;60886;55.034;73.150;2023-05-02T10:52:59;14.60;;;5.50;;
72761;SDS011;60886;55.034;73.150;2023-05-02T10:56:28;13.02;;;6.40;;
72761;SDS011;60886;55.034;73.150;2023-05-02T10:59:36;13.87;;;6.67;;
72761;SDS011;60886;55.034;73.150;2023-05-02T11:12:41;13.77;;;6.00;;
72761;SDS011;60886;55.034;73.150;2023-05-02T11:18:58;13.90;;;6.20;;
72761;SDS011;60886;55.034;73.150;2023-05-02T12:10:34;11.25;;;6.18;;
72761;SDS011;60886;55.034;73.150;2023-05-02T12:14:02;13.97;;;7.00;;
72761;SDS011;60886;55.034;73.150;2023-05-02T12:17:14;11.77;;;5.83;;
72761;SDS011;60886;55.034;73.150;2023-05-02T12:20:22;13.35;;;5.90;;
72761;SDS011;60886;55.034;73.150;2023-05-02T12:24:37;10.37;;;4.93;;
72761;SDS011;60886;55.034;73.150;2023-05-02T12:28:00;10.23;;;5.00;;
72761;SDS011;60886;55.034;73.150;2023-05-02T12:31:09;13.57;;;8.02;;
72761;SDS011;60886;55.034;73.150;2023-05-02T12:34:30;20.67;;;10.95;;
72761;SDS011;60886;55.034;73.150;2023-05-02T12:37:32;13.80;;;7.67;;
72761;SDS011;60886;55.034;73.150;2023-05-02T12:40:34;12.60;;;6.00;;
72761;SDS011;60886;55.034;73.150;2023-05-02T12:43:48;11.13;;;6.00;;
72761;SDS011;60886;55.034;73.150;2023-05-02T12:46:57;20.24;;;12.02;;
72761;SDS011;60886;55.034;73.150;2023-05-02T12:50:05;16.98;;;9.23;;
72761;SDS011;60886;55.034;73.150;2023-05-02T12:53:08;15.13;;;7.67;;
72761;SDS011;60886;55.034;73.150;2023-05-02T12:56:10;13.82;;;7.45;;
72761;SDS011;60886;55.034;73.150;2023-05-02T12:59:31;18.42;;;9.48;;
72761;SDS011;60886;55.034;73.150;2023-05-02T13:02:33;16.93;;;9.20;;
72761;SDS011;60886;55.034;73.150;2023-05-02T13:05:35;32.50;;;10.82;;
72761;SDS011;60886;55.034;73.150;2023-05-02T13:08:47;17.97;;;7.87;;
72761;SDS011;60886;55.034;73.150;2023-05-02T13:11:56;13.87;;;6.74;;
72761;SDS011;60886;55.034;73.150;2023-05-02T13:14:58;12.88;;;6.65;;
72761;SDS011;60886;55.034;73.150;2023-05-02T13:18:00;15.70;;;6.60;;
72761;SDS011;60886;55.034;73.150;2023-05-02T13:21:01;52.92;;;23.58;;
72761;SDS011;60886;55.034;73.150;2023-05-02T13:24:05;13.57;;;7.90;;
72761;SDS011;60886;55.034;73.150;2023-05-02T13:27:06;14.70;;;8.37;;
72761;SDS011;60886;55.034;73.150;2023-05-02T13:30:08;17.67;;;8.57;;
72761;SDS011;60886;55.034;73.150;2023-05-02T13:33:09;20.25;;;10.80;;
72761;SDS011;60886;55.034;73.150;2023-05-02T13:36:11;19.20;;;10.90;;
72761;SDS011;60886;55.034;73.150;2023-05-02T13:39:12;20.83;;;10.93;;
72761;SDS011;60886;55.034;73.150;2023-05-02T13:42:14;20.27;;;9.97;;
72761;SDS011;60886;55.034;73.150;2023-05-02T13:45:15;16.73;;;9.27;;
72761;SDS011;60886;55.034;73.150;2023-05-02T13:48:17;24.43;;;12.73;;
72761;SDS011;60886;55.034;73.150;2023-05-02T13:51:22;16.90;;;8.75;;
72761;SDS011;60886;55.034;73.150;2023-05-02T13:54:24;15.63;;;8.27;;
72761;SDS011;60886;55.034;73.150;2023-05-02T13:57:26;17.00;;;8.88;;
72761;SDS011;60886;55.034;73.150;2023-05-02T14:00:27;17.77;;;9.07;;
72761;SDS011;60886;55.034;73.150;2023-05-02T14:03:29;21.95;;;10.82;;
72761;SDS011;60886;55.034;73.150;2023-05-02T14:06:30;20.88;;;11.07;;
72761;SDS011;60886;55.034;73.150;2023-05-02T14:09:38;23.17;;;11.40;;
72761;SDS011;60886;55.034;73.150;2023-05-02T14:12:39;25.30;;;12.17;;
72761;SDS011;60886;55.034;73.150;2023-05-02T14:15:40;24.05;;;12.35;;
72761;SDS011;60886;55.034;73.150;2023-05-02T14:18:42;29.30;;;13.60;;
72761;SDS011;60886;55.034;73.150;2023-05-02T14:21:45;26.73;;;14.17;;
72761;SDS011;60886;55.034;73.150;2023-05-02T14:24:47;26.77;;;15.13;;
72761;SDS011;60886;55.034;73.150;2023-05-02T14:27:49;31.77;;;17.75;;
72761;SDS011;60886;55.034;73.150;2023-05-02T14:30:50;31.50;;;17.08;;
72761;SDS011;60886;55.034;73.150;2023-05-02T14:33:52;32.95;;;17.95;;
72761;SDS011;60886;55.034;73.150;2023-05-02T14:36:56;38.75;;;17.33;;
72761;SDS011;60886;55.034;73.150;2023-05-02T14:39:57;31.90;;;17.05;;
72761;SDS011;60886;55.034;73.150;2023-05-02T14:42:59;31.53;;;17.17;;
72761;SDS011;60886;55.034;73.150;2023-05-02T14:46:02;35.88;;;16.58;;
72761;SDS011;60886;55.034;73.150;2023-05-02T14:49:13;44.03;;;21.00;;
72761;SDS011;60886;55.034;73.150;2023-05-02T14:52:15;35.77;;;17.60;;
72761;SDS011;60886;55.034;73.150;2023-05-02T14:55:16;37.72;;;17.98;;
72761;SDS011;60886;55.034;73.150;2023-05-02T14:58:18;43.67;;;18.00;;
72761;SDS011;60886;55.034;73.150;2023-05-02T15:01:20;46.28;;;19.73;;
72761;SDS011;60886;55.034;73.150;2023-05-02T15:04:22;50.30;;;19.90;;
72761;SDS011;60886;55.034;73.150;2023-05-02T15:07:25;34.88;;;17.48;;
72761;SDS011;60886;55.034;73.150;2023-05-02T15:10:27;40.55;;;19.77;;
72761;SDS011;60886;55.034;73.150;2023-05-02T15:13:34;42.53;;;18.20;;
72761;SDS011;60886;55.034;73.150;2023-05-02T15:16:36;34.97;;;16.92;;
72761;SDS011;60886;55.034;73.150;2023-05-02T15:19:39;46.73;;;24.27;;
72761;SDS011;60886;55.034;73.150;2023-05-02T15:22:40;47.97;;;23.45;;
72761;SDS011;60886;55.034;73.150;2023-05-02T15:25:42;35.95;;;17.05;;
72761;SDS011;60886;55.034;73.150;2023-05-02T15:28:48;31.45;;;16.75;;
72761;SDS011;60886;55.034;73.150;2023-05-02T15:31:56;31.08;;;16.50;;
72761;SDS011;60886;55.034;73.150;2023-05-02T15:34:57;35.67;;;17.45;;
72761;SDS011;60886;55.034;73.150;2023-05-02T15:37:59;40.13;;;19.17;;
72761;SDS011;60886;55.034;73.150;2023-05-02T15:41:00;50.05;;;21.48;;
72761;SDS011;60886;55.034;73.150;2023-05-02T15:44:03;43.33;;;22.20;;
72761;SDS011;60886;55.034;73.150;2023-05-02T15:47:10;39.33;;;20.87;;
72761;SDS011;60886;55.034;73.150;2023-05-02T15:50:11;37.13;;;19.08;;
72761;SDS011;60886;55.034;73.150;2023-05-02T15:53:13;42.10;;;22.17;;
72761;SDS011;60886;55.034;73.150;2023-05-02T15:56:16;46.00;;;23.73;;
72761;SDS011;60886;55.034;73.150;2023-05-02T15:59:27;38.17;;;19.33;;
72761;SDS011;60886;55.034;73.150;2023-05-02T16:02:29;44.47;;;21.43;;
72761;SDS011;60886;55.034;73.150;2023-05-02T16:05:37;35.92;;;18.17;;
72761;SDS011;60886;55.034;73.150;2023-05-02T16:08:39;33.08;;;16.38;;
72761;SDS011;60886;55.034;73.150;2023-05-02T16:11:56;35.75;;;17.05;;
72761;SDS011;60886;55.034;73.150;2023-05-02T16:14:58;36.03;;;16.42;;
72761;SDS011;60886;55.034;73.150;2023-05-02T16:17:59;28.77;;;15.40;;
72761;SDS011;60886;55.034;73.150;2023-05-02T16:21:01;34.58;;;17.08;;
72761;SDS011;60886;55.034;73.150;2023-05-02T16:24:17;35.87;;;16.10;;
72761;SDS011;60886;55.034;73.150;2023-05-02T16:27:22;31.15;;;16.55;;
72761;SDS011;60886;55.034;73.150;2023-05-02T16:30:24;31.85;;;17.83;;
72761;SDS011;60886;55.034;73.150;2023-05-02T16:33:29;31.70;;;18.25;;
72761;SDS011;60886;55.034;73.150;2023-05-02T16:36:40;33.87;;;18.30;;
72761;SDS011;60886;55.034;73.150;2023-05-02T16:39:42;34.38;;;20.05;;
72761;SDS011;60886;55.034;73.150;2023-05-02T16:42:46;42.77;;;27.27;;
72761;SDS011;60886;55.034;73.150;2023-05-02T16:50:08;39.55;;;24.40;;
72761;SDS011;60886;55.034;73.150;2023-05-02T16:53:10;39.83;;;25.23;;
72761;SDS011;60886;55.034;73.150;2023-05-02T16:56:11;42.80;;;27.25;;
72761;SDS011;60886;55.034;73.150;2023-05-02T16:59:24;45.20;;;26.17;;
72761;SDS011;60886;55.034;73.150;2023-05-02T17:02:30;42.28;;;27.00;;
72761;SDS011;60886;55.034;73.150;2023-05-02T17:05:32;44.33;;;27.52;;
72761;SDS011;60886;55.034;73.150;2023-05-02T17:08:39;42.80;;;25.47;;
72761;SDS011;60886;55.034;73.150;2023-05-02T17:11:56;50.85;;;30.98;;
72761;SDS011;60886;55.034;73.150;2023-05-02T17:14:58;48.50;;;28.92;;
72761;SDS011;60886;55.034;73.150;2023-05-02T17:17:59;46.17;;;28.37;;
72761;SDS011;60886;55.034;73.150;2023-05-02T17:21:01;47.10;;;28.02;;
72761;SDS011;60886;55.034;73.150;2023-05-02T17:24:03;48.90;;;29.57;;
72761;SDS011;60886;55.034;73.150;2023-05-02T17:27:10;47.72;;;28.23;;
72761;SDS011;60886;55.034;73.150;2023-05-02T17:30:17;49.92;;;28.92;;
72761;SDS011;60886;55.034;73.150;2023-05-02T17:33:25;51.70;;;28.60;;
72761;SDS011;60886;55.034;73.150;2023-05-02T17:36:31;52.80;;;29.27;;
72761;SDS011;60886;55.034;73.150;2023-05-02T17:39:36;56.07;;;30.57;;
72761;SDS011;60886;55.034;73.150;2023-05-02T17:46:23;63.05;;;31.55;;
72761;SDS011;60886;55.034;73.150;2023-05-02T17:49:35;61.35;;;32.35;;
72761;SDS011;60886;55.034;73.150;2023-05-02T17:52:36;69.43;;;32.23;;
72761;SDS011;60886;55.034;73.150;2023-05-02T17:55:43;59.90;;;31.80;;
72761;SDS011;60886;55.034;73.150;2023-05-02T17:58:44;62.47;;;32.72;;
72761;SDS011;60886;55.034;73.150;2023-05-02T18:01:56;61.60;;;33.15;;
72761;SDS011;60886;55.034;73.150;2023-05-02T18:04:57;61.03;;;31.23;;
72761;SDS011;60886;55.034;73.150;2023-05-02T18:08:01;58.20;;;32.03;;
72761;SDS011;60886;55.034;73.150;2023-05-02T18:11:02;62.28;;;33.20;;
72761;SDS011;60886;55.034;73.150;2023-05-02T18:14:04;56.42;;;31.77;;
72761;SDS011;60886;55.034;73.150;2023-05-02T18:17:06;65.10;;;30.70;;
72761;SDS011;60886;55.034;73.150;2023-05-02T18:20:09;61.13;;;31.63;;
72761;SDS011;60886;55.034;73.150;2023-05-02T18:23:11;59.97;;;31.47;;
72761;SDS011;60886;55.034;73.150;2023-05-02T18:26:12;65.63;;;33.30;;
72761;SDS011;60886;55.034;73.150;2023-05-02T18:29:14;60.50;;;32.93;;
72761;SDS011;60886;55.034;73.150;2023-05-02T18:32:16;59.97;;;32.42;;
72761;SDS011;60886;55.034;73.150;2023-05-02T18:35:19;64.57;;;32.97;;
72761;SDS011;60886;55.034;73.150;2023-05-02T18:38:22;61.00;;;32.15;;
72761;SDS011;60886;55.034;73.150;2023-05-02T18:41:25;61.42;;;32.53;;
72761;SDS011;60886;55.034;73.150;2023-05-02T18:44:28;60.20;;;31.70;;
72761;SDS011;60886;55.034;73.150;2023-05-02T18:47:30;60.73;;;31.87;;
72761;SDS011;60886;55.034;73.150;2023-05-02T18:50:32;58.08;;;31.15;;
72761;SDS011;60886;55.034;73.150;2023-05-02T18:53:35;55.50;;;29.50;;
72761;SDS011;60886;55.034;73.150;2023-05-02T18:56:37;52.47;;;28.52;;
72761;SDS011;60886;55.034;73.150;2023-05-02T18:59:40;51.30;;;26.10;;
72761;SDS011;60886;55.034;73.150;2023-05-02T19:02:49;44.17;;;23.23;;
72761;SDS011;60886;55.034;73.150;2023-05-02T19:06:03;49.95;;;23.48;;
72761;SDS011;60886;55.034;73.150;2023-05-02T19:09:05;46.77;;;23.57;;
72761;SDS011;60886;55.034;73.150;2023-05-02T19:12:07;36.07;;;20.63;;
72761;SDS011;60886;55.034;73.150;2023-05-02T19:15:08;46.93;;;21.77;;
72761;SDS011;60886;55.034;73.150;2023-05-02T19:18:10;50.97;;;26.52;;
72761;SDS011;60886;55.034;73.150;2023-05-02T19:21:14;72.22;;;33.78;;
72761;SDS011;60886;55.034;73.150;2023-05-02T19:24:15;63.50;;;33.60;;
72761;SDS011;60886;55.034;73.150;2023-05-02T19:27:19;66.22;;;32.60;;
72761;SDS011;60886;55.034;73.150;2023-05-02T19:30:24;67.20;;;32.87;;
72761;SDS011;60886;55.034;73.150;2023-05-02T19:33:26;66.33;;;32.43;;
72761;SDS011;60886;55.034;73.150;2023-05-02T19:36:33;62.95;;;31.45;;